createdAt,value
2018-07-30T00:01:00.764Z,96641.44
2018-07-30T00:03:29.869Z,96630.28
2018-07-30T00:05:58.481Z,96643.47
2018-07-30T00:08:27.028Z,96613.04
2018-07-30T00:10:55.650Z,96636.38
2018-07-30T00:13:24.292Z,96619.13
2018-07-30T00:15:52.785Z,96605.94
2018-07-30T00:18:21.292Z,96641.44
2018-07-30T00:20:49.740Z,96646.52
2018-07-30T00:23:18.311Z,96622.17
2018-07-30T00:25:46.792Z,96586.67
2018-07-30T00:28:15.398Z,96606.95
2018-07-30T00:30:43.976Z,96601.89
2018-07-30T00:33:12.436Z,96621.16
2018-07-30T00:35:40.908Z,96640.42
2018-07-30T00:38:09.428Z,96664.77
2018-07-30T00:40:37.913Z,96670.86
2018-07-30T00:43:06.818Z,96723.60
2018-07-30T00:45:35.355Z,96655.64
2018-07-30T00:48:03.955Z,96665.78
2018-07-30T00:50:33.123Z,96716.50
2018-07-30T00:53:01.678Z,96669.84
2018-07-30T00:55:30.189Z,96691.14
2018-07-30T00:57:58.841Z,96709.41
2018-07-30T01:00:27.376Z,96679.98
2018-07-30T01:02:55.917Z,96671.88
2018-07-30T01:05:24.401Z,96650.57
2018-07-30T01:07:52.910Z,96711.43
2018-07-30T01:10:21.388Z,96654.63
2018-07-30T01:12:50.000Z,96621.16
2018-07-30T01:15:18.466Z,96649.55
2018-07-30T01:17:46.957Z,96689.12
2018-07-30T01:20:15.453Z,96560.30
2018-07-30T01:22:43.951Z,96604.92
2018-07-30T01:25:12.473Z,96625.21
2018-07-30T01:27:40.967Z,96583.62
2018-07-30T01:30:09.617Z,96595.80
2018-07-30T01:32:38.186Z,96615.07
2018-07-30T01:35:06.668Z,96639.41
2018-07-30T01:37:35.179Z,96585.66
2018-07-30T01:40:03.833Z,96559.28
2018-07-30T01:42:32.329Z,96687.09
2018-07-30T01:45:00.858Z,96723.60
2018-07-30T01:47:29.382Z,96725.63
2018-07-30T01:49:57.978Z,96718.53
2018-07-30T01:52:26.510Z,96710.41
2018-07-30T01:54:55.029Z,96702.30
2018-07-30T01:57:23.657Z,96678.97
2018-07-30T01:59:52.152Z,96745.92
2018-07-30T02:02:20.659Z,96712.44
2018-07-30T02:04:49.510Z,96722.59
2018-07-30T02:07:18.027Z,96734.76
2018-07-30T02:09:46.563Z,96742.88
2018-07-30T02:12:15.105Z,96727.66
2018-07-30T02:14:43.880Z,96740.84
2018-07-30T02:17:12.451Z,96763.16
2018-07-30T02:19:41.647Z,96763.16
2018-07-30T02:22:10.151Z,96770.27
2018-07-30T02:24:38.638Z,96791.56
2018-07-30T02:27:07.511Z,96746.94
2018-07-30T02:29:36.023Z,96786.49
2018-07-30T02:32:04.586Z,96764.17
2018-07-30T02:34:33.290Z,96759.11
2018-07-30T02:37:01.928Z,96778.38
2018-07-30T02:39:30.550Z,96744.91
2018-07-30T02:41:59.125Z,96730.70
2018-07-30T02:44:27.774Z,96693.17
2018-07-30T02:46:58.054Z,96666.80
2018-07-30T02:49:28.263Z,96746.94
2018-07-30T02:51:56.812Z,96666.80
2018-07-30T02:54:25.583Z,96670.86
2018-07-30T02:56:54.183Z,96693.17
2018-07-30T02:59:22.679Z,96688.10
2018-07-30T03:01:51.226Z,96655.64
2018-07-30T03:04:19.717Z,96672.89
2018-07-30T03:06:48.216Z,96653.61
2018-07-30T03:09:16.751Z,96685.06
2018-07-30T03:11:45.311Z,96697.23
2018-07-30T03:14:13.870Z,96626.23
2018-07-30T03:16:42.423Z,96613.04
2018-07-30T03:19:10.934Z,96691.14
2018-07-30T03:21:39.412Z,96747.95
2018-07-30T03:24:07.986Z,96793.59
2018-07-30T03:26:36.630Z,96815.91
2018-07-30T03:29:05.167Z,96871.70
2018-07-30T03:31:33.946Z,96928.50
2018-07-30T03:34:02.445Z,96913.29
2018-07-30T03:36:31.017Z,96965.02
2018-07-30T03:38:59.641Z,96952.85
2018-07-30T03:41:28.601Z,96966.03
2018-07-30T03:43:57.276Z,96931.55
2018-07-30T03:46:25.782Z,96951.83
2018-07-30T03:48:54.474Z,96980.23
2018-07-30T03:51:22.997Z,97061.39
2018-07-30T03:53:51.774Z,97032.98
2018-07-30T03:56:20.263Z,97041.11
2018-07-30T03:58:48.811Z,97046.17
2018-07-30T04:01:17.447Z,97096.90
2018-07-30T04:03:46.014Z,97090.81
2018-07-30T04:06:14.739Z,97097.91
2018-07-30T04:08:43.827Z,97157.77
2018-07-30T04:11:12.327Z,97142.55
2018-07-30T04:13:40.919Z,97096.90
2018-07-30T04:16:09.577Z,97078.64
2018-07-30T04:18:38.196Z,97079.66
2018-07-30T04:21:06.691Z,97050.23
2018-07-30T04:23:35.249Z,96961.98
2018-07-30T04:26:04.726Z,96970.09
2018-07-30T04:28:33.654Z,96981.25
2018-07-30T04:31:02.157Z,96977.20
2018-07-30T04:33:30.852Z,96932.56
2018-07-30T04:35:59.509Z,96926.48
2018-07-30T04:38:28.100Z,96895.03
2018-07-30T04:40:56.742Z,96918.36
2018-07-30T04:43:25.224Z,96950.82
2018-07-30T04:45:53.767Z,96914.30
2018-07-30T04:48:22.268Z,96897.06
2018-07-30T04:50:51.788Z,96845.33
2018-07-30T04:53:20.346Z,96828.08
2018-07-30T04:55:48.841Z,96847.35
2018-07-30T04:58:17.376Z,96815.91
2018-07-30T05:00:45.950Z,96801.70
2018-07-30T05:03:14.532Z,96829.09
2018-07-30T05:05:43.179Z,96815.91
2018-07-30T05:08:11.670Z,96791.56
2018-07-30T05:10:40.165Z,96799.68
2018-07-30T05:13:09.842Z,96736.79
2018-07-30T05:15:38.399Z,96704.33
2018-07-30T05:18:06.925Z,96702.30
2018-07-30T05:20:35.673Z,96667.81
2018-07-30T05:23:04.307Z,96599.86
2018-07-30T05:25:32.928Z,96613.04
2018-07-30T05:28:01.987Z,96574.50
2018-07-30T05:30:30.540Z,96590.73
2018-07-30T05:32:59.198Z,96539.00
2018-07-30T05:35:28.081Z,96513.64
2018-07-30T05:37:56.563Z,96469.02
2018-07-30T05:40:25.178Z,96427.43
2018-07-30T05:42:53.849Z,96350.34
2018-07-30T05:45:22.286Z,96356.44
2018-07-30T05:47:50.914Z,96355.42
2018-07-30T05:50:19.435Z,96319.92
2018-07-30T05:52:47.933Z,96348.32
2018-07-30T05:55:16.536Z,96388.89
2018-07-30T05:57:45.015Z,96387.87
2018-07-30T06:00:13.553Z,96342.23
2018-07-30T06:02:42.090Z,96319.92
2018-07-30T06:05:11.178Z,96319.92
2018-07-30T06:07:39.737Z,96317.89
2018-07-30T06:10:08.252Z,96337.16
2018-07-30T06:12:37.136Z,96286.45
2018-07-30T06:15:06.763Z,96273.27
2018-07-30T06:17:35.275Z,96242.84
2018-07-30T06:20:04.013Z,96269.21
2018-07-30T06:22:32.530Z,96262.11
2018-07-30T06:25:01.033Z,96226.61
2018-07-30T06:27:29.650Z,96213.43
2018-07-30T06:29:58.133Z,96123.17
2018-07-30T06:32:26.645Z,96197.20
2018-07-30T06:34:55.146Z,96202.27
2018-07-30T06:37:23.779Z,96134.32
2018-07-30T06:39:52.514Z,96082.60
2018-07-30T06:42:21.115Z,96130.27
2018-07-30T06:44:49.666Z,96076.52
2018-07-30T06:47:18.168Z,96046.09
2018-07-30T06:49:46.711Z,95942.66
2018-07-30T06:52:15.187Z,95680.01
2018-07-30T06:54:43.738Z,95340.33
2018-07-30T06:57:12.266Z,95425.50
2018-07-30T06:59:40.804Z,95107.13
2018-07-30T07:02:10.294Z,95173.03
2018-07-30T07:04:38.865Z,95221.70
2018-07-30T07:07:07.444Z,95020.95
2018-07-30T07:09:36.058Z,95087.87
2018-07-30T07:12:04.699Z,95162.89
2018-07-30T07:14:33.254Z,95269.35
2018-07-30T07:17:01.799Z,95385.95
2018-07-30T07:19:31.230Z,95242.98
2018-07-30T07:22:00.153Z,95268.34
2018-07-30T07:24:28.694Z,95219.67
2018-07-30T07:26:57.231Z,95222.71
2018-07-30T07:29:25.716Z,95290.64
2018-07-30T07:31:54.274Z,95373.78
2018-07-30T07:34:22.822Z,95342.35
2018-07-30T07:36:51.302Z,95430.56
2018-07-30T07:39:20.498Z,95444.77
2018-07-30T07:41:49.052Z,95430.56
2018-07-30T07:44:17.643Z,95331.20
2018-07-30T07:46:46.173Z,95330.19
2018-07-30T07:49:14.665Z,95298.75
2018-07-30T07:51:43.231Z,95358.58
2018-07-30T07:54:11.793Z,95383.92
2018-07-30T07:56:40.337Z,95327.14
2018-07-30T07:59:08.972Z,95456.93
2018-07-30T08:01:38.102Z,95493.44
2018-07-30T08:04:06.618Z,95469.09
2018-07-30T08:06:35.255Z,95396.09
2018-07-30T08:09:03.965Z,95256.17
2018-07-30T08:11:32.822Z,95320.05
2018-07-30T08:14:01.390Z,95335.26
2018-07-30T08:16:29.909Z,95220.69
2018-07-30T08:18:58.442Z,95207.50
2018-07-30T08:21:26.977Z,95334.24
2018-07-30T08:23:55.483Z,95438.68
2018-07-30T08:26:24.051Z,95314.98
2018-07-30T08:28:52.853Z,95343.37
2018-07-30T08:31:21.375Z,95371.76
2018-07-30T08:33:49.936Z,95300.78
2018-07-30T08:36:18.672Z,95288.61
2018-07-30T08:38:47.383Z,95073.67
2018-07-30T08:41:15.941Z,95030.08
2018-07-30T08:43:44.444Z,95144.64
2018-07-30T08:46:13.015Z,94999.66
2018-07-30T08:48:41.877Z,95046.30
2018-07-30T08:51:10.406Z,95037.17
2018-07-30T08:53:38.878Z,95119.30
2018-07-30T08:56:07.491Z,95116.25
2018-07-30T08:58:35.988Z,95008.79
2018-07-30T09:01:04.642Z,95167.96
2018-07-30T09:03:33.158Z,95104.09
2018-07-30T09:06:01.748Z,95000.67
2018-07-30T09:08:30.365Z,94987.50
2018-07-30T09:10:58.920Z,94846.58
2018-07-30T09:13:27.465Z,95099.02
2018-07-30T09:15:57.190Z,94915.52
2018-07-30T09:18:25.954Z,94923.63
2018-07-30T09:20:54.874Z,94949.98
2018-07-30T09:23:23.474Z,94885.10
2018-07-30T09:25:51.970Z,94925.66
2018-07-30T09:28:20.490Z,94864.83
2018-07-30T09:30:48.977Z,94902.34
2018-07-30T09:33:17.593Z,94949.98
2018-07-30T09:35:46.118Z,94875.98
2018-07-30T09:38:14.616Z,94862.80
2018-07-30T09:40:43.097Z,94839.48
2018-07-30T09:43:11.675Z,94766.48
2018-07-30T09:45:40.170Z,94822.25
2018-07-30T09:48:08.686Z,94844.55
2018-07-30T09:50:37.305Z,94977.36
2018-07-30T09:53:05.913Z,94923.63
2018-07-30T09:55:34.474Z,94712.76
2018-07-30T09:58:03.123Z,94645.86
2018-07-30T10:00:37.025Z,94594.16
2018-07-30T10:03:05.527Z,94529.27
2018-07-30T10:05:34.031Z,94436.02
2018-07-30T10:08:02.703Z,94454.27
2018-07-30T10:10:31.388Z,94503.94
2018-07-30T10:12:59.902Z,94408.65
2018-07-30T10:15:28.497Z,94489.74
2018-07-30T10:17:57.192Z,94386.34
2018-07-30T10:20:25.731Z,94384.32
2018-07-30T10:22:54.217Z,94513.05
2018-07-30T10:25:22.810Z,94425.88
2018-07-30T10:27:51.326Z,94308.30
2018-07-30T10:30:19.793Z,94390.41
2018-07-30T10:32:48.317Z,94370.13
2018-07-30T10:35:16.791Z,94537.39
2018-07-30T10:37:45.380Z,94553.61
2018-07-30T10:40:13.911Z,94525.22
2018-07-30T10:42:42.423Z,94292.08
2018-07-30T10:45:10.962Z,94411.69
2018-07-30T10:47:39.543Z,94362.02
2018-07-30T10:50:08.045Z,94171.46
2018-07-30T10:52:36.517Z,94173.48
2018-07-30T10:55:05.100Z,94331.61
2018-07-30T10:57:33.618Z,94321.48
2018-07-30T11:00:02.287Z,94328.57
2018-07-30T11:02:30.842Z,94489.74
2018-07-30T11:04:59.323Z,94387.36
2018-07-30T11:07:27.893Z,94441.09
2018-07-30T11:09:56.414Z,94543.47
2018-07-30T11:12:24.966Z,94453.25
2018-07-30T11:14:53.579Z,94382.30
2018-07-30T11:17:22.046Z,94306.27
2018-07-30T11:19:50.575Z,94252.55
2018-07-30T11:22:19.086Z,94095.45
2018-07-30T11:24:47.663Z,94081.25
2018-07-30T11:27:16.149Z,93977.88
2018-07-30T11:29:44.644Z,94074.16
2018-07-30T11:32:13.196Z,93933.27
2018-07-30T11:34:41.803Z,94052.88
2018-07-30T11:37:10.346Z,94158.28
2018-07-30T11:39:38.863Z,94090.38
2018-07-30T11:42:07.607Z,93991.05
2018-07-30T11:44:36.122Z,93929.22
2018-07-30T11:47:04.710Z,93901.86
2018-07-30T11:49:33.255Z,93860.30
2018-07-30T11:52:01.762Z,93817.73
2018-07-30T11:54:30.742Z,93826.86
2018-07-30T11:56:59.204Z,93718.42
2018-07-30T11:59:27.745Z,93909.97
2018-07-30T12:01:56.254Z,93834.97
2018-07-30T12:04:24.774Z,93860.30
2018-07-30T12:06:53.375Z,93873.48
2018-07-30T12:09:22.184Z,93889.70
2018-07-30T12:11:50.792Z,93988.01
2018-07-30T12:14:19.385Z,93945.44
2018-07-30T12:16:47.890Z,93814.70
2018-07-30T12:19:16.448Z,93764.02
2018-07-30T12:21:44.996Z,93704.23
2018-07-30T12:24:13.510Z,93719.43
2018-07-30T12:26:42.054Z,93778.21
2018-07-30T12:29:10.679Z,93724.50
2018-07-30T12:31:39.178Z,93539.04
2018-07-30T12:34:07.709Z,93543.09
2018-07-30T12:36:36.360Z,93808.61
2018-07-30T12:39:08.174Z,93917.06
2018-07-30T12:41:37.146Z,93879.56
2018-07-30T12:44:05.893Z,93950.50
2018-07-30T12:46:34.449Z,93918.08
2018-07-30T12:49:03.187Z,93631.27
2018-07-30T12:51:31.751Z,93450.88
2018-07-30T12:54:00.272Z,93154.98
2018-07-30T12:56:28.788Z,93240.09
2018-07-30T12:58:57.262Z,93200.58
2018-07-30T13:01:25.793Z,93305.97
2018-07-30T13:03:54.354Z,93494.45
2018-07-30T13:06:22.987Z,93552.22
2018-07-30T13:08:51.504Z,93566.41
2018-07-30T13:11:20.089Z,93458.98
2018-07-30T13:13:48.700Z,93434.66
2018-07-30T13:16:17.288Z,93273.53
2018-07-30T13:18:45.944Z,93381.97
2018-07-30T13:21:14.598Z,93221.86
2018-07-30T13:23:43.165Z,93094.19
2018-07-30T13:26:11.650Z,93012.11
2018-07-30T13:28:40.146Z,92865.19
2018-07-30T13:31:08.994Z,92805.41
2018-07-30T13:33:37.502Z,92643.30
2018-07-30T13:36:06.025Z,92748.67
2018-07-30T13:38:34.575Z,92909.77
2018-07-30T13:41:03.062Z,93131.67
2018-07-30T13:43:31.892Z,93443.78
2018-07-30T13:46:00.367Z,93266.45
2018-07-30T13:48:28.853Z,93479.25
2018-07-30T13:50:57.421Z,93302.92
2018-07-30T13:53:25.917Z,93372.84
2018-07-30T13:55:54.395Z,93189.43
2018-07-30T13:58:22.923Z,93127.63
2018-07-30T14:00:51.421Z,93147.89
2018-07-30T14:03:20.022Z,92803.39
2018-07-30T14:05:48.546Z,92766.91
2018-07-30T14:08:17.038Z,92834.80
2018-07-30T14:10:45.926Z,92548.08
2018-07-30T14:13:14.402Z,92675.73
2018-07-30T14:15:42.950Z,92570.36
2018-07-30T14:18:11.599Z,92463.98
2018-07-30T14:20:40.197Z,92790.22
2018-07-30T14:23:08.743Z,92910.78
2018-07-30T14:25:37.294Z,92870.26
2018-07-30T14:28:06.169Z,92978.67
2018-07-30T14:30:34.667Z,93129.65
2018-07-30T14:33:03.207Z,92965.50
2018-07-30T14:35:31.789Z,92964.48
2018-07-30T14:38:00.245Z,92989.81
2018-07-30T14:40:28.827Z,92654.45
2018-07-30T14:42:57.378Z,92735.50
2018-07-30T14:45:25.954Z,93340.42
2018-07-30T14:47:54.426Z,93062.77
2018-07-30T14:50:22.900Z,92565.30
2018-07-30T14:52:51.447Z,92834.80
2018-07-30T14:55:26.588Z,92794.27
2018-07-30T14:57:55.141Z,92772.99
2018-07-30T15:00:23.634Z,92643.30
2018-07-30T15:02:52.510Z,92550.09
2018-07-30T15:05:21.642Z,92563.27
2018-07-30T15:07:50.701Z,92581.50
2018-07-30T15:10:19.262Z,92502.48
2018-07-30T15:12:47.773Z,92888.50
2018-07-30T15:15:16.324Z,93171.19
2018-07-30T15:17:44.907Z,93251.25
2018-07-30T15:20:13.458Z,93295.83
2018-07-30T15:22:42.087Z,93192.47
2018-07-30T15:25:10.605Z,93165.11
2018-07-30T15:27:39.135Z,93179.30
2018-07-30T15:30:07.825Z,93130.66
2018-07-30T15:32:36.321Z,93027.31
2018-07-30T15:35:05.010Z,93097.22
2018-07-30T15:37:33.699Z,92965.50
2018-07-30T15:40:02.377Z,92893.56
2018-07-30T15:42:30.875Z,92974.62
2018-07-30T15:44:59.377Z,93108.38
2018-07-30T15:47:28.187Z,92957.39
2018-07-30T15:49:56.684Z,92792.24
2018-07-30T15:52:25.340Z,92814.53
2018-07-30T15:54:54.437Z,92868.23
2018-07-30T15:57:22.915Z,92879.38
2018-07-30T15:59:51.402Z,92751.72
2018-07-30T16:02:20.062Z,92607.84
2018-07-30T16:04:48.575Z,92668.63
2018-07-30T16:07:17.073Z,92465.00
2018-07-30T16:09:45.561Z,92508.56
2018-07-30T16:12:14.034Z,92355.59
2018-07-30T16:14:42.589Z,92273.53
2018-07-30T16:17:11.063Z,92370.78
2018-07-30T16:19:39.585Z,92579.48
2018-07-30T16:22:08.130Z,92434.61
2018-07-30T16:24:36.650Z,92521.73
2018-07-30T16:27:05.180Z,93011.09
2018-07-30T16:29:33.710Z,92819.59
2018-07-30T16:32:02.265Z,92709.16
2018-07-30T16:34:30.812Z,92952.33
2018-07-30T16:36:59.337Z,92767.92
2018-07-30T16:39:28.059Z,92718.28
2018-07-30T16:41:57.229Z,92893.56
2018-07-30T16:44:26.462Z,93208.69
2018-07-30T16:46:55.834Z,93163.09
2018-07-30T16:49:25.168Z,93110.40
2018-07-30T16:51:54.185Z,93064.80
2018-07-30T16:54:23.184Z,93133.70
2018-07-30T16:56:52.338Z,93023.25
2018-07-30T16:59:21.322Z,93168.16
2018-07-30T17:01:50.650Z,93031.36
2018-07-30T17:04:20.370Z,93102.29
2018-07-30T17:06:49.505Z,93078.98
2018-07-30T17:09:18.099Z,93262.39
2018-07-30T17:11:46.684Z,93280.63
2018-07-30T17:14:15.207Z,93429.59
2018-07-30T17:16:43.733Z,93465.06
2018-07-30T17:19:12.424Z,93553.23
2018-07-30T17:21:40.922Z,93598.83
2018-07-30T17:24:09.450Z,93640.38
2018-07-30T17:26:37.953Z,93585.66
2018-07-30T17:29:06.486Z,93583.63
2018-07-30T17:31:34.992Z,93661.66
2018-07-30T17:34:03.766Z,93687.00
2018-07-30T17:36:38.969Z,93609.98
2018-07-30T17:39:09.025Z,93743.75
2018-07-30T17:57:48.021Z,100613.19
2018-07-30T18:00:16.606Z,100614.34
2018-07-30T18:02:45.486Z,100617.05
2018-07-30T18:05:18.176Z,100617.65
2018-07-30T18:07:47.634Z,100621.34
2018-07-30T18:10:16.216Z,100616.51
2018-07-30T18:12:44.800Z,100622.33
2018-07-30T18:15:13.450Z,100625.59
2018-07-30T18:17:41.983Z,100618.61
2018-07-30T18:20:10.538Z,100610.86
2018-07-30T18:22:39.170Z,100614.39
2018-07-30T18:25:07.692Z,100609.02
2018-07-30T18:27:36.307Z,100618.52
2018-07-30T18:30:06.021Z,100617.17
2018-07-30T18:32:34.685Z,100615.66
2018-07-30T18:35:03.363Z,100626.97
2018-07-30T18:37:31.923Z,100623.52
2018-07-30T18:40:00.486Z,100627.81
2018-07-30T18:42:29.043Z,100632.01
2018-07-30T18:44:57.581Z,100639.28
2018-07-30T18:47:26.151Z,100650.63
2018-07-30T18:49:54.811Z,100651.66
2018-07-30T18:52:23.377Z,100651.71
2018-07-30T18:54:52.170Z,100653.23
2018-07-30T18:57:20.641Z,100653.32
2018-07-30T18:59:49.170Z,100660.91
2018-07-30T19:02:17.694Z,100655.56
2018-07-30T19:04:46.281Z,100663.15
2018-07-30T19:07:14.817Z,100667.41
2018-07-30T19:09:43.460Z,100661.14
2018-07-30T19:12:11.977Z,100663.73
2018-07-30T19:14:40.565Z,100663.86
2018-07-30T19:17:09.489Z,100666.95
2018-07-30T19:19:38.133Z,100673.48
2018-07-30T19:22:07.334Z,100676.99
2018-07-30T19:24:35.893Z,100685.73
2018-07-30T19:27:04.434Z,100684.42
2018-07-30T19:29:33.063Z,100689.29
2018-07-30T19:32:01.616Z,100689.06
2018-07-30T19:34:30.258Z,100689.00
2018-07-30T19:36:58.791Z,100693.34
2018-07-30T19:39:27.349Z,100690.01
2018-07-30T19:41:55.853Z,100696.03
2018-07-30T19:44:24.412Z,100687.80
2018-07-30T19:46:52.899Z,100695.59
2018-07-30T19:49:21.495Z,100701.48
2018-07-30T19:51:50.032Z,100711.98
2018-07-30T19:54:18.592Z,100707.33
2018-07-30T19:56:47.163Z,100707.44
2018-07-30T19:59:15.678Z,100707.59
2018-07-30T20:01:44.236Z,100711.06
2018-07-30T20:04:12.802Z,100710.48
2018-07-30T20:06:41.322Z,100703.80
2018-07-30T20:09:11.508Z,100705.24
2018-07-30T20:11:40.079Z,100707.46
2018-07-30T20:14:08.647Z,100710.93
2018-07-30T20:16:37.794Z,100703.56
2018-07-30T20:19:06.365Z,100719.11
2018-07-30T20:21:35.897Z,100717.89
2018-07-30T20:24:04.426Z,100712.19
2018-07-30T20:26:33.406Z,100714.84
2018-07-30T20:29:01.938Z,100717.15
2018-07-30T20:31:30.441Z,100721.20
2018-07-30T20:33:59.546Z,100718.83
2018-07-30T20:36:28.029Z,100718.66
2018-07-30T20:38:56.557Z,100721.48
2018-07-30T20:41:28.210Z,100733.34
2018-07-30T20:43:56.986Z,100743.77
2018-07-30T20:46:25.520Z,100729.42
2018-07-30T20:48:54.003Z,100735.33
2018-07-30T20:51:22.545Z,100745.11
2018-07-30T20:53:51.092Z,100746.68
2018-07-30T20:56:19.657Z,100744.99
2018-07-30T20:58:48.497Z,100750.99
2018-07-30T21:01:17.133Z,100749.92
2018-07-30T21:03:45.688Z,100753.16
2018-07-30T21:06:14.279Z,100753.73
2018-07-30T21:08:43.066Z,100755.30
2018-07-30T21:11:11.674Z,100764.19
2018-07-30T21:13:40.233Z,100762.88
2018-07-30T21:16:08.798Z,100760.79
2018-07-30T21:18:37.633Z,100762.34
2018-07-30T21:21:07.060Z,100759.16
2018-07-30T21:23:35.642Z,100766.78
2018-07-30T21:26:04.263Z,100767.81
2018-07-30T21:28:33.001Z,100762.98
2018-07-30T21:31:01.590Z,100769.50
2018-07-30T21:33:30.131Z,100767.90
2018-07-30T21:35:58.665Z,100778.80
2018-07-30T21:38:27.281Z,100782.67
2018-07-30T21:40:55.912Z,100786.48
2018-07-30T21:43:24.449Z,100786.16
2018-07-30T21:45:52.999Z,100788.91
2018-07-30T21:48:21.519Z,100788.52
2018-07-30T21:50:50.066Z,100786.34
2018-07-30T21:53:18.721Z,100787.20
2018-07-30T21:55:47.311Z,100785.34
2018-07-30T21:58:15.851Z,100788.59
2018-07-30T22:00:49.778Z,100787.36
2018-07-30T22:03:18.393Z,100794.45
2018-07-30T22:05:51.088Z,100789.91
2018-07-30T22:08:19.640Z,100790.45
2018-07-30T22:10:48.199Z,100795.27
2018-07-30T22:13:16.692Z,100797.16
2018-07-30T22:15:45.278Z,100794.15
2018-07-30T22:18:13.811Z,100791.73
2018-07-30T22:20:42.454Z,100793.11
2018-07-30T22:23:10.950Z,100792.03
2018-07-30T22:25:39.743Z,100793.95
2018-07-30T22:28:08.422Z,100790.42
2018-07-30T22:30:37.103Z,100801.53
2018-07-30T22:33:05.649Z,100823.47
2018-07-30T22:35:34.138Z,100825.34
2018-07-30T22:38:02.737Z,100829.08
2018-07-30T22:40:31.348Z,100824.55
2018-07-30T22:42:59.880Z,100835.36
2018-07-30T22:45:28.389Z,100822.16
2018-07-30T22:47:56.969Z,100831.09
2018-07-30T22:50:25.498Z,100828.15
2018-07-30T22:52:54.037Z,100830.84
2018-07-30T22:55:22.573Z,100831.66
2018-07-30T22:57:51.071Z,100832.45
2018-07-30T23:00:19.664Z,100836.50
2018-07-30T23:02:48.248Z,100830.84
2018-07-30T23:05:16.730Z,100831.09
2018-07-30T23:07:45.520Z,100839.45
2018-07-30T23:10:14.055Z,100829.70
2018-07-30T23:12:42.730Z,100825.34
2018-07-30T23:15:11.361Z,100828.27
2018-07-30T23:17:39.979Z,100823.41
2018-07-30T23:20:08.563Z,100827.17
2018-07-30T23:22:37.118Z,100823.58
2018-07-30T23:25:05.994Z,100827.33
2018-07-30T23:27:34.570Z,100821.38
2018-07-30T23:30:03.622Z,100811.40
2018-07-30T23:32:32.105Z,100812.98
2018-07-30T23:35:00.650Z,100818.01
2018-07-30T23:39:56.710Z,100822.39
2018-07-30T23:42:25.850Z,100825.16
2018-07-30T23:44:54.401Z,100824.63
2018-07-30T23:47:22.966Z,100820.05
2018-07-30T23:49:51.518Z,100818.03
2018-07-30T23:52:20.241Z,100816.61
2018-07-30T23:54:48.780Z,100827.20
2018-07-30T23:57:17.288Z,100815.84
2018-07-30T23:59:45.805Z,100816.11
